Time;durP1;ratioP1;P1;durP2;ratioP2;P2;SDS_P1;SDS_P2;PMS_P1;PMS_P2;Temp;Humidity;BMP_temperature;BMP_pressure;BME280_temperature;BME280_humidity;BME280_pressure;Samples;Min_cycle;Max_cycle;Signal;HPM_P1;HPM_P2
2022/01/30 00:00:11;;;;;;;9.10;7.50;;;;;;;0.79;90.25;100008.03;5071543;28;20196;-67
2022/01/30 00:02:38;;;;;;;11.50;8.30;;;;;;;0.84;90.00;100001.38;5071691;28;20203;-67
2022/01/30 00:05:07;;;;;;;12.80;8.80;;;;;;;0.87;89.72;100003.97;5070812;28;20204;-67
2022/01/30 00:07:35;;;;;;;8.87;7.73;;;;;;;0.86;89.88;99999.75;5070808;28;20204;-68
2022/01/30 00:10:03;;;;;;;12.93;8.10;;;;;;;0.91;89.55;100013.28;5071887;28;20200;-67
2022/01/30 00:12:40;;;;;;;7.73;7.07;;;;;;;0.88;89.86;100003.16;5071153;28;20208;-67
2022/01/30 00:15:08;;;;;;;9.77;7.27;;;;;;;0.75;90.34;100006.25;5070682;28;20264;-67
2022/01/30 00:17:40;;;;;;;10.87;7.60;;;;;;;0.76;90.65;100000.41;5070085;28;20282;-67
2022/01/30 00:20:14;;;;;;;8.63;7.93;;;;;;;0.74;90.74;100004.59;5069198;28;20203;-67
2022/01/30 00:22:48;;;;;;;8.57;7.37;;;;;;;0.76;90.70;100005.44;5069892;28;20249;-67
2022/01/30 00:25:18;;;;;;;7.70;6.67;;;;;;;0.71;90.74;100004.50;5068715;28;20200;-67
2022/01/30 00:27:49;;;;;;;9.30;6.63;;;;;;;0.69;90.69;100001.09;5069830;28;20660;-66
2022/01/30 00:30:17;;;;;;;7.97;7.17;;;;;;;0.70;90.24;100009.53;5069889;28;20200;-67
2022/01/30 00:32:44;;;;;;;7.80;7.03;;;;;;;0.68;90.30;100006.97;5070195;28;20196;-67
2022/01/30 00:35:11;;;;;;;6.53;6.10;;;;;;;0.62;90.26;99988.34;5069089;28;20203;-67
2022/01/30 00:37:41;;;;;;;9.23;7.10;;;;;;;0.68;90.45;100009.50;5069486;28;20219;-67
2022/01/30 00:40:11;;;;;;;9.27;7.30;;;;;;;0.68;90.32;99999.41;5067940;28;20208;-67
2022/01/30 00:42:38;;;;;;;7.80;6.80;;;;;;;0.69;89.92;99996.06;5069574;28;20257;-67
2022/01/30 00:45:05;;;;;;;8.00;7.30;;;;;;;0.66;89.63;99992.63;5068607;28;20220;-67
2022/01/30 00:47:32;;;;;;;8.60;7.40;;;;;;;0.61;89.87;99982.47;5069881;28;20687;-67
2022/01/30 00:49:59;;;;;;;8.40;7.53;;;;;;;0.61;89.83;99985.00;5070300;28;20216;-67
2022/01/30 00:52:26;;;;;;;9.73;7.20;;;;;;;0.60;89.72;99980.75;5070415;28;20204;-67
2022/01/30 00:54:53;;;;;;;6.47;6.07;;;;;;;0.53;89.87;99963.81;5071717;28;20203;-67
2022/01/30 00:57:21;;;;;;;8.17;7.47;;;;;;;0.56;90.15;99973.94;5070379;28;20203;-67
2022/01/30 00:59:49;;;;;;;7.43;6.73;;;;;;;0.52;90.16;99962.94;5070918;28;20207;-67
2022/01/30 01:02:16;;;;;;;8.47;7.13;;;;;;;0.51;89.90;99961.25;5068833;28;20696;-67
2022/01/30 01:04:43;;;;;;;10.37;7.80;;;;;;;0.39;89.83;99929.91;5069173;28;20204;-67
2022/01/30 01:07:15;;;;;;;8.07;6.90;;;;;;;0.45;89.60;99945.16;5068884;28;20212;-68
2022/01/30 01:09:49;;;;;;;8.23;7.33;;;;;;;0.39;89.78;99932.41;5070306;28;20282;-68
2022/01/30 01:12:45;;;;;;;12.40;8.17;;;;;;;0.37;89.82;99926.50;5069092;28;20223;-68
2022/01/30 01:23:20;;;;;;;8.80;7.33;;;;;;;0.30;89.67;99915.44;5007562;28;20285;-68
2022/01/30 01:23:49;;;;;;;10.63;7.83;;;;;;;0.26;90.09;99910.34;5066330;28;20239;-68
2022/01/30 01:26:16;;;;;;;7.43;6.90;;;;;;;0.26;89.79;99902.78;5069391;28;20257;-67
2022/01/30 01:28:44;;;;;;;7.70;6.97;;;;;;;0.24;89.76;99891.78;5069692;28;20216;-68
2022/01/30 01:31:13;;;;;;;7.67;7.07;;;;;;;0.26;89.97;99890.16;5069475;28;20277;-68
2022/01/30 01:33:53;;;;;;;8.23;6.67;;;;;;;0.28;89.74;99886.00;5069744;28;20737;-68
2022/01/30 01:36:20;;;;;;;9.87;6.93;;;;;;;0.26;89.64;99872.53;5070450;28;20683;-68
2022/01/30 01:38:47;;;;;;;10.83;7.17;;;;;;;0.24;89.70;99871.63;5070535;28;20192;-68
2022/01/30 01:41:18;;;;;;;9.20;7.00;;;;;;;0.26;89.54;99860.75;5069700;28;20239;-68
2022/01/30 01:43:45;;;;;;;8.27;7.53;;;;;;;0.20;89.56;99862.28;5069830;28;20227;-68
2022/01/30 01:46:17;;;;;;;8.33;7.07;;;;;;;0.16;89.96;99865.59;5069258;28;20192;-68
2022/01/30 01:48:45;;;;;;;8.87;6.73;;;;;;;0.10;90.03;99866.31;5069754;28;20207;-68
2022/01/30 01:51:18;;;;;;;8.07;6.57;;;;;;;0.05;90.09;99856.97;5069457;28;20652;-68
2022/01/30 01:53:47;;;;;;;7.73;7.03;;;;;;;-0.03;90.47;99855.16;5069104;28;20198;-69
2022/01/30 01:56:14;;;;;;;9.80;6.67;;;;;;;-0.05;90.74;99841.69;5069024;28;20196;-68
2022/01/30 01:58:41;;;;;;;9.30;7.20;;;;;;;-0.07;90.71;99840.81;5068606;28;20199;-68
2022/01/30 02:01:08;;;;;;;7.63;6.87;;;;;;;-0.09;90.57;99834.88;5068287;28;20200;-68
2022/01/30 02:03:38;;;;;;;7.50;6.70;;;;;;;-0.20;90.56;99821.25;5069668;28;20214;-68
2022/01/30 02:06:07;;;;;;;8.33;6.87;;;;;;;-0.11;90.34;99826.47;5068757;28;20195;-68
2022/01/30 02:08:37;;;;;;;7.97;6.43;;;;;;;-0.08;90.05;99826.50;5068243;28;20219;-68
2022/01/30 02:11:07;;;;;;;9.20;7.20;;;;;;;-0.12;90.20;99824.75;5069212;28;20196;-68
2022/01/30 02:24:57;;;;;;;7.20;6.50;;;;;;;-0.63;90.99;99783.41;5069052;28;20305;-68
2022/01/30 02:27:27;;;;;;;8.73;7.03;;;;;;;-0.50;91.24;99809.69;5066946;28;20208;-68
2022/01/30 02:29:53;;;;;;;7.43;6.80;;;;;;;-0.56;91.66;99805.41;5067192;28;20218;-68
2022/01/30 02:32:21;;;;;;;9.73;6.97;;;;;;;-0.60;91.71;99808.66;5066861;28;20561;-68
2022/01/30 02:34:47;;;;;;;8.83;7.23;;;;;;;-0.64;92.20;99806.88;5067696;28;20753;-68
2022/01/30 02:37:16;;;;;;;9.83;6.53;;;;;;;-0.67;92.67;99801.78;5067023;28;20200;-68
2022/01/30 02:39:43;;;;;;;7.67;6.97;;;;;;;-0.68;93.02;99800.13;5066603;28;20191;-68
2022/01/30 02:42:17;;;;;;;8.23;6.60;;;;;;;-0.72;93.62;99796.69;5066044;28;20295;-68
2022/01/30 02:44:50;;;;;;;10.67;7.23;;;;;;;-0.78;94.00;99789.00;5068455;28;20231;-68
2022/01/30 02:47:25;;;;;;;7.03;6.40;;;;;;;-0.80;94.34;99779.69;5067535;28;20200;-70
2022/01/30 02:50:11;;;;;;;7.43;6.70;;;;;;;-0.99;94.93;99749.94;5067341;28;20256;-67
2022/01/30 02:52:41;;;;;;;7.23;6.67;;;;;;;-0.87;95.61;99767.84;5066721;28;20576;-67
2022/01/30 02:55:09;;;;;;;7.13;6.43;;;;;;;-0.86;96.03;99769.50;5065825;28;20192;-67
2022/01/30 02:57:38;;;;;;;7.07;6.10;;;;;;;-0.86;96.24;99764.47;5067245;28;20207;-67
2022/01/30 03:00:08;;;;;;;9.10;6.60;;;;;;;-0.79;96.50;99768.81;5065829;28;20212;-67
2022/01/30 03:02:35;;;;;;;7.13;6.50;;;;;;;-0.74;96.49;99772.28;5067204;28;20207;-67
2022/01/30 03:05:02;;;;;;;8.63;7.57;;;;;;;-0.79;96.86;99769.69;5071805;28;20204;-67
2022/01/30 03:07:29;;;;;;;9.07;8.17;;;;;;;-0.74;96.66;99759.69;5072740;28;20680;-67
2022/01/30 03:09:55;;;;;;;8.47;7.43;;;;;;;-0.77;96.64;99769.69;5073061;28;20208;-66
2022/01/30 03:12:22;;;;;;;11.07;8.07;;;;;;;-0.84;96.26;99762.84;5072430;28;20208;-67
2022/01/30 03:14:51;;;;;;;8.77;7.07;;;;;;;-1.00;96.11;99750.78;5073061;28;20192;-70
2022/01/30 03:17:18;;;;;;;7.73;7.00;;;;;;;-0.99;95.83;99747.41;5072116;28;20211;-67
2022/01/30 03:19:45;;;;;;;7.40;6.43;;;;;;;-1.06;95.85;99747.28;5073053;28;20662;-67
2022/01/30 03:22:12;;;;;;;8.53;7.10;;;;;;;-1.12;95.89;99747.16;5071803;28;20204;-67
2022/01/30 03:24:39;;;;;;;8.50;6.70;;;;;;;-1.15;95.99;99742.06;5072180;28;20196;-67
2022/01/30 03:27:07;;;;;;;9.47;8.23;;;;;;;-1.18;96.23;99736.13;5072188;28;20583;-66
2022/01/30 03:29:36;;;;;;;7.50;6.90;;;;;;;-1.17;96.43;99732.78;5070755;28;20791;-67
2022/01/30 03:32:06;;;;;;;7.53;6.83;;;;;;;-1.22;96.81;99734.34;5073002;28;20192;-67
2022/01/30 03:34:33;;;;;;;8.37;7.47;;;;;;;-1.25;96.92;99730.09;5071749;28;20218;-67
2022/01/30 03:37:00;;;;;;;7.80;7.13;;;;;;;-1.21;96.94;99731.88;5072637;28;20200;-67
2022/01/30 03:39:27;;;;;;;7.67;7.07;;;;;;;-1.18;96.50;99726.91;5071518;28;20201;-67
2022/01/30 03:41:54;;;;;;;14.20;6.70;;;;;;;-1.22;96.43;99730.16;5072451;28;20192;-69
2022/01/30 03:44:21;;;;;;;10.07;6.73;;;;;;;-1.18;96.33;99726.91;5071538;28;20298;-69
2022/01/30 03:46:47;;;;;;;8.27;7.47;;;;;;;-1.19;96.07;99720.16;5071501;28;20203;-67
2022/01/30 03:49:16;;;;;;;7.13;6.53;;;;;;;-1.19;96.23;99715.13;5071486;28;20211;-67
2022/01/30 03:51:43;;;;;;;8.30;6.00;;;;;;;-1.11;95.55;99718.69;5069865;28;20212;-67
2022/01/30 03:54:09;;;;;;;7.60;6.63;;;;;;;-1.06;94.66;99714.59;5071870;28;20200;-67
2022/01/30 03:56:36;;;;;;;6.50;5.80;;;;;;;-1.08;94.24;99716.22;5069197;28;22072;-67
2022/01/30 03:59:03;;;;;;;9.10;6.03;;;;;;;-1.06;94.43;99707.03;5071964;28;20208;-67
2022/01/30 04:01:30;;;;;;;7.47;6.77;;;;;;;-1.06;94.19;99696.97;5071738;28;20192;-67
2022/01/30 04:03:58;;;;;;;7.03;6.57;;;;;;;-1.15;94.13;99681.69;5072168;28;20196;-67
2022/01/30 04:06:27;;;;;;;8.83;7.47;;;;;;;-1.04;93.83;99693.66;5071268;28;20266;-67
2022/01/30 04:08:54;;;;;;;8.63;7.63;;;;;;;-1.06;93.72;99691.94;5070700;28;20200;-67
2022/01/30 04:11:22;;;;;;;8.43;6.63;;;;;;;-1.10;93.72;99690.16;5071537;28;20200;-67
2022/01/30 04:13:49;;;;;;;8.23;6.37;;;;;;;-1.12;93.96;99686.78;5070274;28;20226;-67
2022/01/30 04:16:16;;;;;;;8.20;6.10;;;;;;;-1.20;94.08;99683.28;5070641;28;20204;-67
2022/01/30 04:18:43;;;;;;;6.50;6.00;;;;;;;-1.23;94.05;99678.16;5071954;28;20196;-67
2022/01/30 04:21:10;;;;;;;8.07;7.27;;;;;;;-1.26;94.36;99683.13;5071084;28;20196;-67
2022/01/30 04:23:39;;;;;;;6.80;6.17;;;;;;;-1.29;94.25;99673.00;5071639;28;20204;-66
2022/01/30 04:26:06;;;;;;;6.50;5.90;;;;;;;-1.31;94.36;99679.69;5070819;28;20253;-68
2022/01/30 04:28:33;;;;;;;6.53;6.03;;;;;;;-1.33;94.53;99681.31;5071469;28;20210;-66
2022/01/30 04:31:01;;;;;;;7.17;6.47;;;;;;;-1.33;94.49;99681.31;5071273;28;20208;-67
2022/01/30 04:33:28;;;;;;;7.40;6.37;;;;;;;-1.35;94.54;99672.88;5068509;28;20196;-67
2022/01/30 04:35:57;;;;;;;7.77;6.97;;;;;;;-1.37;94.91;99679.53;5070979;28;20638;-67
2022/01/30 04:38:30;;;;;;;11.23;8.77;;;;;;;-1.47;95.12;99682.66;5071008;28;20596;-67
2022/01/30 04:41:20;;;;;;;11.87;9.43;;;;;;;-1.48;95.02;99680.97;5069738;28;20208;-67
2022/01/30 04:58:03;;;;;;;13.20;9.73;;;;;;;-1.67;95.83;99701.47;5068825;28;20205;-65
2022/01/30 05:00:50;;;;;;;14.30;10.53;;;;;;;-1.66;95.77;99700.66;5068995;28;20192;-69
2022/01/30 05:03:31;;;;;;;12.40;11.03;;;;;;;-1.61;95.54;99697.44;5068311;28;20211;-69
2022/01/30 05:06:03;;;;;;;15.37;11.70;;;;;;;-1.61;95.33;99699.09;5069487;28;20192;-68
2022/01/30 05:08:31;;;;;;;17.00;11.33;;;;;;;-1.81;95.30;99655.91;5069653;28;20208;-68
2022/01/30 05:10:58;;;;;;;18.60;12.17;;;;;;;-1.69;94.67;99675.47;5069757;28;20216;-68
2022/01/30 05:13:30;;;;;;;19.07;12.77;;;;;;;-1.56;94.52;99687.50;5069275;28;20686;-69
2022/01/30 05:15:57;;;;;;;22.57;12.67;;;;;;;-1.56;94.53;99687.50;5069917;28;20200;-68
2022/01/30 05:18:26;;;;;;;24.47;12.70;;;;;;;-1.60;94.76;99685.72;5070832;28;20214;-69
2022/01/30 05:20:53;;;;;;;16.27;11.67;;;;;;;-1.67;94.99;99673.81;5071040;28;20192;-69
2022/01/30 05:23:20;;;;;;;9.47;8.37;;;;;;;-1.81;95.66;99650.06;5069760;28;20196;-69
2022/01/30 05:25:49;;;;;;;10.03;7.27;;;;;;;-1.75;95.61;99655.22;5070783;28;20204;-69
2022/01/30 05:28:17;;;;;;;6.67;6.00;;;;;;;-1.77;95.63;99639.25;5068377;28;20196;-69
2022/01/30 05:30:46;;;;;;;6.43;5.90;;;;;;;-1.79;95.60;99620.78;5070285;28;20208;-69
2022/01/30 05:33:13;;;;;;;7.53;5.70;;;;;;;-1.77;95.43;99609.09;5069536;28;20192;-68
2022/01/30 05:35:41;;;;;;;6.07;5.57;;;;;;;-1.73;95.27;99604.19;5070240;28;20203;-69
2022/01/30 05:38:08;;;;;;;5.57;5.07;;;;;;;-1.78;94.71;99584.81;5069151;28;20672;-68
2022/01/30 05:40:36;;;;;;;7.10;6.50;;;;;;;-1.67;94.71;99599.28;5070471;28;20200;-69
2022/01/30 05:43:04;;;;;;;6.57;5.93;;;;;;;-1.63;94.24;99590.16;5070356;28;20211;-69
2022/01/30 05:45:35;;;;;;;9.17;6.40;;;;;;;-1.61;94.00;99578.44;5068563;28;20224;-68
2022/01/30 05:48:09;;;;;;;7.60;5.63;;;;;;;-1.63;93.66;99560.00;5070416;28;20200;-69
2022/01/30 05:50:36;;;;;;;6.40;5.63;;;;;;;-1.56;93.03;99555.94;5069463;28;20310;-68
2022/01/30 05:53:04;;;;;;;6.07;5.53;;;;;;;-1.53;92.92;99554.34;5066465;28;20211;-69
2022/01/30 05:55:31;;;;;;;5.93;5.43;;;;;;;-1.42;92.34;99560.41;5064020;28;20223;-69
2022/01/30 05:57:59;;;;;;;6.53;5.97;;;;;;;-1.37;92.39;99551.31;5068126;28;20748;-68
2022/01/30 06:00:26;;;;;;;5.47;5.07;;;;;;;-1.27;91.55;99540.63;5064162;28;20208;-69
2022/01/30 06:02:53;;;;;;;8.57;5.63;;;;;;;-1.13;90.73;99524.09;5069670;28;20587;-69
2022/01/30 06:05:23;;;;;;;7.13;5.37;;;;;;;-0.91;89.26;99529.53;5068879;28;20195;-69
2022/01/30 06:07:52;;;;;;;6.57;5.97;;;;;;;-0.73;88.06;99529.84;5066183;28;20204;-69
2022/01/30 06:10:21;;;;;;;6.77;5.87;;;;;;;-0.55;86.73;99523.41;5068150;28;20250;-69
2022/01/30 06:12:48;;;;;;;7.90;6.57;;;;;;;-0.46;85.84;99520.22;5062604;28;20196;-69
2022/01/30 06:15:15;;;;;;;7.60;5.37;;;;;;;-0.38;85.63;99513.63;5067060;28;20568;-69
2022/01/30 06:17:43;;;;;;;6.43;5.83;;;;;;;-0.28;84.93;99517.97;5064702;28;20577;-69
2022/01/30 06:20:11;;;;;;;6.13;5.53;;;;;;;-0.18;84.29;99512.25;5065400;28;20211;-69
2022/01/30 06:22:40;;;;;;;4.93;4.57;;;;;;;-0.09;84.04;99511.50;5066466;28;20208;-69
2022/01/30 06:25:08;;;;;;;7.70;5.67;;;;;;;-0.14;83.63;99503.06;5065515;28;20214;-69
2022/01/30 06:27:35;;;;;;;6.13;5.43;;;;;;;-0.02;83.59;99524.22;5067051;28;20663;-69
2022/01/30 06:30:02;;;;;;;6.07;5.47;;;;;;;0.02;84.34;99534.34;5067345;28;20212;-69
2022/01/30 06:32:29;;;;;;;6.50;5.87;;;;;;;0.05;85.04;99539.44;5067314;28;20212;-69
2022/01/30 06:34:56;;;;;;;6.03;5.53;;;;;;;-0.08;85.75;99509.03;5068097;28;20212;-69
2022/01/30 06:37:23;;;;;;;5.23;4.93;;;;;;;0.16;84.95;99532.88;5065726;28;20208;-69
2022/01/30 06:39:51;;;;;;;6.03;5.53;;;;;;;0.24;85.11;99546.41;5065053;28;20211;-69
2022/01/30 06:42:18;;;;;;;5.83;5.43;;;;;;;0.18;84.71;99526.16;5060814;28;20202;-69
2022/01/30 06:44:45;;;;;;;9.13;6.77;;;;;;;0.31;84.69;99531.41;5067951;28;20231;-70
2022/01/30 06:47:13;;;;;;;6.97;5.87;;;;;;;0.28;84.96;99525.47;5066871;28;20245;-68
2022/01/30 06:49:39;;;;;;;5.53;5.13;;;;;;;0.46;85.50;99548.38;5067191;28;21209;-68
2022/01/30 06:52:09;;;;;;;9.90;6.30;;;;;;;0.46;86.28;99535.78;5066930;28;20204;-68
2022/01/30 06:54:38;;;;;;;5.93;5.43;;;;;;;0.44;86.98;99534.91;5068632;28;20210;-68
2022/01/30 06:57:07;;;;;;;7.07;5.33;;;;;;;0.50;87.41;99519.84;5066149;28;20603;-68
2022/01/30 06:59:35;;;;;;;5.10;4.40;;;;;;;0.63;86.89;99520.84;5066880;28;20215;-68
2022/01/30 07:02:03;;;;;;;4.33;4.03;;;;;;;0.78;85.47;99524.38;5062308;28;20200;-68
2022/01/30 07:04:30;;;;;;;4.30;3.90;;;;;;;0.87;85.43;99516.91;5065773;28;20727;-68
2022/01/30 07:06:57;;;;;;;4.50;4.13;;;;;;;1.00;84.33;99523.75;5068550;28;20207;-68
2022/01/30 07:09:24;;;;;;;7.50;4.93;;;;;;;1.19;83.09;99523.97;5067916;28;20197;-68
2022/01/30 07:11:51;;;;;;;5.90;5.27;;;;;;;1.31;83.14;99521.53;5068496;28;20215;-69
2022/01/30 07:14:19;;;;;;;5.33;4.97;;;;;;;1.38;83.40;99530.84;5066723;28;20196;-68
2022/01/30 07:16:46;;;;;;;7.33;4.80;;;;;;;1.48;83.30;99537.69;5067360;28;20208;-68
2022/01/30 07:19:13;;;;;;;5.33;4.83;;;;;;;1.61;81.80;99536.94;5068704;28;20207;-69
2022/01/30 07:21:40;;;;;;;9.17;5.47;;;;;;;1.69;79.73;99537.84;5069175;28;20676;-68
2022/01/30 07:24:07;;;;;;;5.93;5.53;;;;;;;1.77;80.45;99531.19;5068894;28;20199;-68
2022/01/30 07:26:34;;;;;;;5.87;5.37;;;;;;;1.93;80.03;99535.50;5066507;28;20200;-67
2022/01/30 07:29:03;;;;;;;6.17;5.67;;;;;;;2.05;77.97;99527.13;5069954;28;20556;-69
2022/01/30 07:31:32;;;;;;;6.67;6.03;;;;;;;2.08;77.68;99517.88;5069927;28;20306;-65
2022/01/30 07:34:00;;;;;;;7.40;6.13;;;;;;;2.06;76.78;99504.41;5068322;28;20219;-65
2022/01/30 07:36:27;;;;;;;5.93;5.40;;;;;;;2.16;75.42;99517.09;5067958;28;20203;-64
2022/01/30 07:38:54;;;;;;;12.97;5.80;;;;;;;2.21;74.60;99502.75;5068361;28;20664;-65
2022/01/30 07:41:22;;;;;;;5.70;5.13;;;;;;;2.42;73.67;99513.00;5066828;28;21652;-64
2022/01/30 07:43:49;;;;;;;5.90;5.40;;;;;;;2.50;72.40;99511.31;5065392;28;20646;-65
2022/01/30 07:46:16;;;;;;;6.00;4.83;;;;;;;2.54;71.27;99513.88;5065509;28;20204;-64
2022/01/30 07:48:45;;;;;;;6.83;4.80;;;;;;;2.61;70.12;99502.94;5068400;28;20207;-64
2022/01/30 07:51:12;;;;;;;7.23;4.47;;;;;;;2.67;68.56;99497.06;5069461;28;20215;-64
2022/01/30 07:53:38;;;;;;;6.10;5.50;;;;;;;2.72;68.72;99497.03;5071166;28;20207;-64
2022/01/30 07:56:05;;;;;;;8.33;4.77;;;;;;;2.71;67.72;99491.16;5070479;28;20568;-64
2022/01/30 07:58:32;;;;;;;6.40;4.10;;;;;;;2.76;66.80;99484.41;5069594;28;20204;-64
2022/01/30 08:00:59;;;;;;;5.03;4.30;;;;;;;2.77;66.70;99493.72;5069235;28;20200;-64
2022/01/30 08:03:26;;;;;;;4.67;4.20;;;;;;;2.74;66.47;99483.59;5068301;28;20204;-65
2022/01/30 08:05:57;;;;;;;4.60;4.30;;;;;;;2.75;66.17;99472.59;5071596;28;20196;-65
2022/01/30 08:08:24;;;;;;;5.90;5.33;;;;;;;2.74;67.02;99481.06;5071868;28;20728;-64
2022/01/30 08:10:51;;;;;;;4.33;4.03;;;;;;;2.71;67.31;99475.97;5071188;28;20595;-64
2022/01/30 08:13:18;;;;;;;4.20;3.80;;;;;;;2.74;66.83;99437.16;5070585;28;20210;-65
2022/01/30 08:15:45;;;;;;;4.97;4.57;;;;;;;2.76;66.81;99454.03;5070239;28;20204;-65
2022/01/30 08:18:13;;;;;;;4.80;4.50;;;;;;;2.81;66.69;99447.28;5069654;28;20625;-65
2022/01/30 08:20:39;;;;;;;10.67;4.40;;;;;;;2.84;67.19;99447.31;5071535;28;20192;-64
2022/01/30 08:23:12;;;;;;;7.27;4.37;;;;;;;2.82;67.32;99443.94;5070390;28;20207;-65
2022/01/30 08:25:39;;;;;;;6.90;4.50;;;;;;;2.85;67.70;99455.75;5072861;28;20200;-65
2022/01/30 08:28:06;;;;;;;6.23;4.80;;;;;;;2.82;68.30;99454.06;5072657;28;20677;-65
2022/01/30 08:30:33;;;;;;;8.17;4.77;;;;;;;2.94;67.67;99450.72;5071111;28;20216;-64
2022/01/30 08:33:00;;;;;;;3.83;3.63;;;;;;;3.02;66.75;99452.41;5072806;28;20632;-66
2022/01/30 08:35:28;;;;;;;5.70;4.63;;;;;;;3.05;66.66;99452.41;5070855;28;20594;-66
2022/01/30 08:37:55;;;;;;;5.77;3.97;;;;;;;3.17;65.46;99456.63;5064643;28;20220;-66
2022/01/30 08:40:24;;;;;;;4.27;3.67;;;;;;;3.26;63.49;99465.91;5068892;28;20595;-66
2022/01/30 08:42:51;;;;;;;4.43;4.10;;;;;;;3.24;64.15;99458.31;5067672;28;20203;-66
2022/01/30 08:45:20;;;;;;;4.10;3.80;;;;;;;3.30;63.75;99448.16;5067827;28;20231;-66
2022/01/30 08:47:49;;;;;;;8.13;3.93;;;;;;;3.34;63.90;99434.66;5066683;28;20283;-66
2022/01/30 08:50:18;;;;;;;6.03;3.00;;;;;;;3.52;62.40;99423.69;5068631;28;20279;-66
2022/01/30 08:52:45;;;;;;;4.73;3.23;;;;;;;3.52;60.26;99403.41;5069333;28;20295;-66
2022/01/30 08:55:13;;;;;;;3.97;3.70;;;;;;;3.73;60.13;99416.00;5068628;28;20630;-66
2022/01/30 08:57:42;;;;;;;3.40;3.20;;;;;;;3.85;60.73;99417.66;5068707;28;20203;-66
2022/01/30 09:00:11;;;;;;;4.23;3.83;;;;;;;3.92;59.55;99415.09;5068432;28;20265;-66
2022/01/30 09:02:38;;;;;;;3.87;3.57;;;;;;;3.97;60.07;99405.81;5068890;28;20215;-66
2022/01/30 09:05:06;;;;;;;3.77;3.33;;;;;;;4.03;59.35;99399.88;5069449;28;20254;-66
2022/01/30 09:07:33;;;;;;;8.43;3.83;;;;;;;4.05;58.03;99386.31;5069565;28;20210;-66
2022/01/30 09:10:00;;;;;;;3.60;3.30;;;;;;;4.18;58.45;99393.03;5068383;28;20192;-66
2022/01/30 09:12:27;;;;;;;4.20;2.70;;;;;;;4.20;57.50;99380.34;5067853;28;20219;-66
2022/01/30 09:14:55;;;;;;;3.33;3.13;;;;;;;4.04;58.07;99356.72;5069496;28;20283;-66
2022/01/30 09:17:24;;;;;;;3.80;2.93;;;;;;;4.25;58.93;99371.00;5068668;28;20655;-66
2022/01/30 09:19:51;;;;;;;3.60;3.30;;;;;;;4.30;59.10;99363.38;5067773;28;20204;-66
2022/01/30 09:22:20;;;;;;;3.30;3.10;;;;;;;4.34;58.94;99372.63;5068548;28;20295;-66
2022/01/30 09:24:48;;;;;;;5.10;3.97;;;;;;;4.42;59.24;99371.75;5067778;28;20205;-66
2022/01/30 09:27:15;;;;;;;3.60;3.30;;;;;;;4.51;59.82;99370.84;5068279;28;20307;-66
2022/01/30 09:29:44;;;;;;;3.60;2.90;;;;;;;4.47;59.09;99359.88;5068837;28;20758;-66
2022/01/30 09:32:13;;;;;;;3.70;3.27;;;;;;;4.60;60.00;99365.72;5068169;28;20303;-66
2022/01/30 09:34:40;;;;;;;4.43;3.90;;;;;;;4.66;59.52;99361.44;5069337;28;20200;-66
2022/01/30 09:37:08;;;;;;;4.00;3.80;;;;;;;4.70;60.15;99357.19;5066723;28;20200;-66
2022/01/30 09:39:35;;;;;;;5.10;4.60;;;;;;;4.72;60.19;99351.22;5067198;28;20222;-66
2022/01/30 09:42:04;;;;;;;6.63;5.67;;;;;;;4.64;59.80;99314.06;5064248;28;20204;-66
2022/01/30 09:44:31;;;;;;;6.67;5.20;;;;;;;4.75;61.64;99335.97;5064537;28;20580;-66
2022/01/30 09:46:58;;;;;;;6.97;4.47;;;;;;;5.06;58.31;99351.81;5060396;28;20972;-66
2022/01/30 09:49:30;;;;;;;4.13;3.80;;;;;;;5.16;57.01;99328.00;5068414;28;20299;-66
2022/01/30 09:51:58;;;;;;;4.23;3.83;;;;;;;5.44;54.84;99342.97;5065478;28;20223;-66
2022/01/30 09:54:25;;;;;;;4.63;4.23;;;;;;;5.50;54.82;99345.44;5066958;28;20227;-66
2022/01/30 09:56:51;;;;;;;4.77;4.33;;;;;;;5.59;55.29;99337.72;5068562;28;20545;-66
2022/01/30 09:59:18;;;;;;;5.57;4.97;;;;;;;5.69;55.55;99321.47;5068674;28;20192;-66
2022/01/30 10:01:45;;;;;;;5.50;4.87;;;;;;;5.71;55.63;99318.09;5064866;28;20284;-66
2022/01/30 10:04:13;;;;;;;4.90;4.40;;;;;;;5.81;55.68;99298.47;5064265;28;20292;-67
2022/01/30 10:06:57;;;;;;;3.90;3.60;;;;;;;5.78;55.16;99283.25;5068067;28;20204;-66
2022/01/30 10:09:28;;;;;;;4.00;3.70;;;;;;;5.84;54.80;99272.97;5068048;28;20204;-66
2022/01/30 10:12:12;;;;;;;3.37;3.07;;;;;;;6.01;55.72;99296.50;5066449;28;20251;-65
2022/01/30 10:14:54;;;;;;;8.80;3.90;;;;;;;6.08;54.87;99293.03;5065166;28;20200;-66
2022/01/30 10:17:30;;;;;;;4.27;3.87;;;;;;;6.16;53.95;99286.13;5069910;28;20200;-66
2022/01/30 10:20:02;;;;;;;4.80;4.40;;;;;;;6.29;54.58;99292.75;5069215;28;22151;-66
2022/01/30 10:22:30;;;;;;;4.67;4.13;;;;;;;6.44;55.36;99285.72;5069069;28;20254;-65
2022/01/30 10:24:58;;;;;;;4.67;4.27;;;;;;;6.52;55.09;99273.72;5067957;28;20283;-65
2022/01/30 10:27:27;;;;;;;5.20;4.50;;;;;;;6.66;53.08;99262.44;5064950;28;20277;-68
2022/01/30 10:30:02;;;;;;;5.90;5.30;;;;;;;6.75;53.37;99246.16;5066418;28;20236;-67
2022/01/30 10:32:30;;;;;;;6.07;4.67;;;;;;;6.89;51.60;99226.38;5063378;28;20316;-67
2022/01/30 10:35:00;;;;;;;4.57;4.20;;;;;;;7.03;51.22;99231.22;5063306;28;20656;-65
2022/01/30 10:37:27;;;;;;;18.60;4.87;;;;;;;7.06;50.97;99246.44;5064901;28;20208;-67
2022/01/30 10:40:03;;;;;;;5.57;4.37;;;;;;;7.15;50.83;99239.47;5065766;28;20203;-67
2022/01/30 10:42:39;;;;;;;4.27;3.93;;;;;;;7.21;49.65;99229.16;5064964;28;20253;-67
2022/01/30 10:45:13;;;;;;;3.50;3.23;;;;;;;7.20;48.01;99209.66;5063748;28;20247;-67
2022/01/30 10:47:41;;;;;;;5.57;3.10;;;;;;;7.46;48.13;99211.66;5066746;28;20206;-67
2022/01/30 10:50:17;;;;;;;2.77;2.67;;;;;;;7.84;47.34;99213.41;5065749;28;20257;-67
2022/01/30 10:52:56;;;;;;;2.97;2.63;;;;;;;8.20;47.06;99204.06;5064177;28;20670;-67
2022/01/30 10:55:35;;;;;;;7.50;3.27;;;;;;;8.52;46.13;99193.09;5067555;28;20295;-67
2022/01/30 10:58:03;;;;;;;2.47;2.27;;;;;;;8.71;45.67;99189.19;5067245;28;20253;-66
2022/01/30 11:00:41;;;;;;;3.47;3.17;;;;;;;8.86;44.93;99178.53;5062309;28;20295;-67
2022/01/30 11:03:34;;;;;;;3.37;3.07;;;;;;;9.02;47.83;99168.72;5065063;28;20643;-68
2022/01/30 11:06:02;;;;;;;2.53;2.40;;;;;;;9.13;43.96;99142.00;5066838;28;20211;-68
2022/01/30 11:08:31;;;;;;;2.90;2.70;;;;;;;9.37;43.52;99151.50;5068561;28;20200;-65
2022/01/30 11:11:19;;;;;;;4.23;3.67;;;;;;;9.52;43.81;99128.94;5068617;28;20295;-67
2022/01/30 11:14:01;;;;;;;4.03;3.20;;;;;;;9.71;42.97;99130.03;5065343;28;20294;-66
2022/01/30 11:19:15;;;;;;;3.20;3.00;;;;;;;9.92;42.81;99108.88;5065610;28;20288;-66
2022/01/30 11:21:43;;;;;;;2.60;2.50;;;;;;;10.08;41.90;99109.25;5064799;28;20196;-66
2022/01/30 11:24:16;;;;;;;2.47;2.30;;;;;;;10.15;41.47;99101.31;5063105;28;20291;-67
2022/01/30 11:26:47;;;;;;;4.20;1.90;;;;;;;10.17;41.08;99094.44;5070946;28;20202;-67
2022/01/30 11:29:16;;;;;;;2.77;2.43;;;;;;;10.33;42.43;99102.44;5066355;28;20208;-67
2022/01/30 11:31:46;;;;;;;2.40;2.20;;;;;;;10.36;41.97;99075.00;5069991;28;20224;-69
2022/01/30 11:34:26;;;;;;;3.13;2.87;;;;;;;10.44;42.69;99072.97;5066873;28;20720;-68
2022/01/30 11:36:54;;;;;;;5.27;3.30;;;;;;;10.64;44.20;99081.69;5065147;28;20196;-65
2022/01/30 11:39:22;;;;;;;3.53;3.20;;;;;;;10.79;43.97;99068.34;5067045;28;20287;-66
2022/01/30 11:42:13;;;;;;;3.47;3.17;;;;;;;10.77;42.99;99052.16;5067338;28;20211;-65
2022/01/30 11:44:40;;;;;;;2.83;2.63;;;;;;;10.83;43.32;99041.69;5068068;28;20219;-67
2022/01/30 11:47:21;;;;;;;3.50;3.30;;;;;;;11.03;44.20;99046.91;5063079;28;20207;-67
2022/01/30 11:49:55;;;;;;;3.87;3.60;;;;;;;11.00;43.70;99037.63;5064679;28;20196;-68
2022/01/30 11:52:52;;;;;;;2.83;2.70;;;;;;;11.25;43.77;99036.66;5068677;28;20318;-63
2022/01/30 11:55:57;;;;;;;8.40;3.80;;;;;;;11.39;43.21;99035.25;5070128;28;20743;-63
2022/01/30 11:58:45;;;;;;;3.40;2.93;;;;;;;11.54;44.05;99044.91;5070403;28;20193;-63
2022/01/30 12:01:34;;;;;;;3.13;2.50;;;;;;;11.68;42.88;99038.38;5067848;28;20236;-65
2022/01/30 12:04:03;;;;;;;12.07;2.40;;;;;;;11.83;42.52;99037.78;5069643;28;20196;-63
2022/01/30 12:06:36;;;;;;;1.03;1.03;;;;;;;11.99;42.53;99041.38;5070551;28;20192;-64
2022/01/30 12:09:07;;;;;;;3.13;1.37;;;;;;;12.11;42.52;99035.75;5070494;28;20207;-64
2022/01/30 12:11:54;;;;;;;11.40;2.00;;;;;;;12.20;41.38;99050.78;5070983;28;20216;-65
2022/01/30 12:14:59;;;;;;;2.53;1.53;;;;;;;12.24;41.66;99052.34;5070274;28;20203;-64
2022/01/30 12:17:49;;;;;;;1.53;1.43;;;;;;;12.24;42.44;99034.34;5068235;28;20225;-65
2022/01/30 12:20:17;;;;;;;1.50;1.40;;;;;;;12.38;41.73;99034.56;5060839;28;20204;-65
2022/01/30 12:22:44;;;;;;;7.27;2.23;;;;;;;12.47;41.37;99033.34;5070099;28;20660;-64